createdAt,value
2023-04-16T00:02:17.123Z,98363.59
2023-04-16T00:04:44.670Z,98350.00
2023-04-16T00:07:11.994Z,98368.59
2023-04-16T00:09:39.225Z,98362.69
2023-04-16T00:12:06.888Z,98357.00
2023-04-16T00:14:34.064Z,98358.41
2023-04-16T00:17:01.424Z,98355.94
2023-04-16T00:19:28.973Z,98364.81
2023-04-16T00:21:56.375Z,98356.31
2023-04-16T00:24:23.540Z,98359.63
2023-04-16T00:26:51.001Z,98358.19
2023-04-16T00:29:18.591Z,98356.31
2023-04-16T00:31:46.459Z,98362.69
2023-04-16T00:34:13.939Z,98361.28
2023-04-16T00:36:41.271Z,98353.13
2023-04-16T00:39:08.903Z,98366.81
2023-04-16T00:41:37.737Z,98362.81
2023-04-16T00:44:04.921Z,98363.41
2023-04-16T00:46:32.118Z,98370.50
2023-04-16T00:49:00.377Z,98364.13
2023-04-16T00:51:27.712Z,98358.44
2023-04-16T00:53:55.426Z,98365.00
2023-04-16T00:56:24.157Z,98357.56
2023-04-16T00:58:51.300Z,98362.28
2023-04-16T01:01:18.502Z,98363.47
2023-04-16T01:03:47.156Z,98367.12
2023-04-16T01:06:14.566Z,98363.00
2023-04-16T01:08:42.020Z,98373.50
2023-04-16T01:11:14.245Z,98373.28
2023-04-16T01:13:41.601Z,98372.81
2023-04-16T01:16:10.404Z,98374.72
2023-04-16T01:18:38.384Z,98373.91
2023-04-16T01:21:06.022Z,98377.81
2023-04-16T01:23:33.469Z,98371.56
2023-04-16T01:26:01.014Z,98373.56
2023-04-16T01:28:28.536Z,98376.66
2023-04-16T01:30:55.829Z,98375.47
2023-04-16T01:33:23.844Z,98379.81
2023-04-16T01:35:51.201Z,98372.75
2023-04-16T01:38:18.624Z,98370.97
2023-04-16T01:40:46.861Z,98373.69
2023-04-16T01:43:14.139Z,98362.09
2023-04-16T01:45:41.841Z,98370.72
2023-04-16T01:48:09.397Z,98369.31
2023-04-16T01:50:36.690Z,98367.88
2023-04-16T01:53:05.215Z,98369.66
2023-04-16T01:55:36.472Z,98364.19
2023-04-16T01:58:03.741Z,98372.00
2023-04-16T02:00:32.933Z,98379.69
2023-04-16T02:03:00.754Z,98372.47
2023-04-16T02:05:28.344Z,98372.25
2023-04-16T02:07:55.512Z,98372.34
2023-04-16T02:10:23.432Z,98373.66
2023-04-16T02:12:51.225Z,98369.75
2023-04-16T02:15:18.544Z,98376.59
2023-04-16T02:17:46.765Z,98382.25
2023-04-16T02:20:14.474Z,98388.06
2023-04-16T02:22:43.413Z,98386.66
2023-04-16T02:25:11.393Z,98394.81
2023-04-16T02:27:39.115Z,98394.34
2023-04-16T02:30:07.352Z,98392.78
2023-04-16T02:32:35.131Z,98389.50
2023-04-16T02:35:04.147Z,98392.91
2023-04-16T02:37:31.471Z,98393.75
2023-04-16T02:39:58.681Z,98396.84
2023-04-16T02:42:26.285Z,98401.00
2023-04-16T02:44:54.020Z,98391.75
2023-04-16T02:47:21.302Z,98392.50
2023-04-16T02:49:48.797Z,98399.81
2023-04-16T02:52:16.250Z,98398.88
2023-04-16T02:54:43.462Z,98399.69
2023-04-16T02:57:11.158Z,98405.25
2023-04-16T02:59:38.426Z,98403.00
2023-04-16T03:02:06.018Z,98407.00
2023-04-16T03:04:33.598Z,98402.53
2023-04-16T03:07:01.002Z,98401.81
2023-04-16T03:09:28.261Z,98407.56
2023-04-16T03:11:56.829Z,98405.69
2023-04-16T03:14:24.077Z,98406.84
2023-04-16T03:16:51.262Z,98407.37
2023-04-16T03:19:18.816Z,98399.56
2023-04-16T03:21:46.013Z,98399.50
2023-04-16T03:24:13.680Z,98398.56
2023-04-16T03:26:41.408Z,98406.59
2023-04-16T03:29:09.760Z,98413.13
2023-04-16T03:31:37.125Z,98422.31
2023-04-16T03:34:04.603Z,98433.31
2023-04-16T03:36:32.614Z,98427.62
2023-04-16T03:38:59.809Z,98433.66
2023-04-16T03:41:27.479Z,98442.31
2023-04-16T03:43:54.737Z,98439.72
2023-04-16T03:46:22.561Z,98444.56
2023-04-16T03:48:50.111Z,98448.66
2023-04-16T03:51:17.563Z,98457.25
2023-04-16T03:53:44.715Z,98455.56
2023-04-16T03:56:13.479Z,98453.59
2023-04-16T03:58:40.856Z,98460.53
2023-04-16T04:01:08.267Z,98456.44
2023-04-16T04:03:37.797Z,98452.63
2023-04-16T04:06:08.645Z,98455.97
2023-04-16T04:08:36.555Z,98459.63
2023-04-16T04:11:04.034Z,98455.13
2023-04-16T04:13:31.500Z,98453.47
2023-04-16T04:15:59.112Z,98441.31
2023-04-16T04:18:27.065Z,98451.34
2023-04-16T04:20:54.246Z,98465.19
2023-04-16T04:23:23.235Z,98472.06
2023-04-16T04:25:50.497Z,98477.16
2023-04-16T04:28:18.421Z,98476.91
2023-04-16T04:30:45.936Z,98480.56
2023-04-16T04:33:13.166Z,98484.34
2023-04-16T04:35:40.458Z,98488.25
2023-04-16T04:38:08.584Z,98482.47
2023-04-16T04:40:36.041Z,98484.34
2023-04-16T04:43:03.873Z,98482.94
2023-04-16T04:45:32.189Z,98482.47
2023-04-16T04:48:00.013Z,98484.97
2023-04-16T04:50:27.457Z,98484.22
2023-04-16T04:52:55.103Z,98482.34
2023-04-16T04:55:22.380Z,98481.16
2023-04-16T04:57:51.021Z,98490.63
2023-04-16T05:00:18.569Z,98486.09
2023-04-16T05:02:47.605Z,98492.25
2023-04-16T05:05:14.939Z,98481.97
2023-04-16T05:07:42.506Z,98489.41
2023-04-16T05:10:09.898Z,98489.66
2023-04-16T05:12:37.086Z,98490.84
2023-04-16T05:15:04.742Z,98483.03
2023-04-16T05:17:31.914Z,98495.31
2023-04-16T05:19:59.235Z,98498.16
2023-04-16T05:22:26.698Z,98493.97
2023-04-16T05:24:53.871Z,98497.06
2023-04-16T05:27:21.017Z,98507.53
2023-04-16T05:29:48.455Z,98500.75
2023-04-16T05:32:15.684Z,98505.00
2023-04-16T05:34:42.843Z,98499.53
2023-04-16T05:37:10.353Z,98507.59
2023-04-16T05:39:37.502Z,98509.72
2023-04-16T05:42:04.929Z,98513.00
2023-04-16T05:44:32.432Z,98499.34
2023-04-16T05:46:59.614Z,98492.59
2023-04-16T05:49:26.824Z,98503.31
2023-04-16T05:51:54.300Z,98502.94
2023-04-16T05:54:21.649Z,98504.50
2023-04-16T05:56:48.853Z,98509.78
2023-04-16T05:59:16.300Z,98511.19
2023-04-16T06:01:43.410Z,98514.00
2023-04-16T06:04:10.984Z,98512.09
2023-04-16T06:06:38.556Z,98509.84
2023-04-16T06:09:05.748Z,98515.34
2023-04-16T06:11:35.132Z,98533.66
2023-04-16T06:14:03.578Z,98531.44
2023-04-16T06:16:30.932Z,98529.84
2023-04-16T06:18:58.483Z,98532.44
2023-04-16T06:21:26.706Z,98523.56
2023-04-16T06:23:54.677Z,98525.22
2023-04-16T06:26:22.178Z,98521.38
2023-04-16T06:28:49.770Z,98526.97
2023-04-16T06:31:17.017Z,98531.19
2023-04-16T06:33:44.719Z,98532.31
2023-04-16T06:36:12.327Z,98538.16
2023-04-16T06:38:39.516Z,98535.63
2023-04-16T06:41:07.023Z,98525.62
2023-04-16T06:43:34.206Z,98531.13
2023-04-16T06:46:01.590Z,98531.84
2023-04-16T06:48:29.932Z,98536.41
2023-04-16T06:50:57.143Z,98535.63
2023-04-16T06:53:24.306Z,98530.66
2023-04-16T06:55:51.944Z,98533.69
2023-04-16T06:58:19.130Z,98539.44
2023-04-16T07:00:46.631Z,98536.84
2023-04-16T07:03:14.393Z,98539.72
2023-04-16T07:05:41.725Z,98535.53
2023-04-16T07:08:09.047Z,98533.53
2023-04-16T07:10:36.527Z,98539.75
2023-04-16T07:13:03.817Z,98543.25
2023-04-16T07:15:31.034Z,98544.38
2023-04-16T07:17:58.582Z,98541.75
2023-04-16T07:20:26.021Z,98549.88
2023-04-16T07:22:53.255Z,98546.16
2023-04-16T07:25:20.877Z,98539.03
2023-04-16T07:27:48.136Z,98541.19
2023-04-16T07:30:15.815Z,98545.34
2023-04-16T07:32:43.672Z,98542.22
2023-04-16T07:35:10.926Z,98540.94
2023-04-16T07:37:38.141Z,98542.44
2023-04-16T07:40:06.167Z,98545.75
2023-04-16T07:42:33.844Z,98533.81
2023-04-16T07:45:01.072Z,98535.16
2023-04-16T07:47:28.601Z,98538.63
2023-04-16T07:49:55.906Z,98545.66
2023-04-16T07:52:24.547Z,98547.97
2023-04-16T07:54:52.094Z,98541.69
2023-04-16T07:57:19.298Z,98548.16
2023-04-16T07:59:46.499Z,98540.94
2023-04-16T08:02:15.002Z,98538.37
2023-04-16T08:04:43.193Z,98551.66
2023-04-16T08:07:10.705Z,98555.91
2023-04-16T08:09:38.132Z,98556.22
2023-04-16T08:12:05.721Z,98555.19
2023-04-16T08:14:33.149Z,98558.41
2023-04-16T08:17:00.351Z,98564.69
2023-04-16T08:19:27.942Z,98567.66
2023-04-16T08:21:55.660Z,98566.59
2023-04-16T08:24:22.913Z,98563.25
2023-04-16T08:26:50.479Z,98563.00
2023-04-16T08:29:17.812Z,98561.25
2023-04-16T08:31:45.054Z,98561.97
2023-04-16T08:34:13.434Z,98568.31
2023-04-16T08:36:40.918Z,98569.72
2023-04-16T08:39:08.313Z,98566.94
2023-04-16T08:41:36.981Z,98570.63
2023-04-16T08:44:11.968Z,98577.78
2023-04-16T08:46:39.721Z,98574.38
2023-04-16T08:49:07.570Z,98569.56
2023-04-16T08:51:35.382Z,98589.81
2023-04-16T08:54:04.310Z,98586.22
2023-04-16T08:56:31.944Z,98588.50
2023-04-16T08:59:02.174Z,98588.50
2023-04-16T09:01:29.850Z,98586.41
2023-04-16T09:03:57.399Z,98594.16
2023-04-16T09:06:24.769Z,98597.97
2023-04-16T09:08:52.690Z,98594.16
2023-04-16T09:11:20.030Z,98599.94
2023-04-16T09:13:47.387Z,98603.94
2023-04-16T09:16:15.292Z,98607.38
2023-04-16T09:18:42.635Z,98614.25
2023-04-16T09:21:13.660Z,98605.66
2023-04-16T09:23:41.167Z,98614.37
2023-04-16T09:26:08.331Z,98604.56
2023-04-16T09:28:42.888Z,98609.28
2023-04-16T09:31:11.355Z,98611.56
2023-04-16T09:33:38.713Z,98608.69
2023-04-16T09:36:06.669Z,98614.59
2023-04-16T09:38:50.279Z,98615.34
2023-04-16T09:41:17.830Z,98619.41
2023-04-16T09:43:56.590Z,98613.06
2023-04-16T09:46:24.753Z,98614.63
2023-04-16T09:48:52.363Z,98613.50
2023-04-16T09:51:19.538Z,98622.50
2023-04-16T09:53:46.825Z,98616.66
2023-04-16T09:56:14.347Z,98618.38
2023-04-16T09:58:41.767Z,98614.03
2023-04-16T10:01:09.920Z,98619.13
2023-04-16T10:03:38.498Z,98620.78
2023-04-16T10:06:19.608Z,98616.03
2023-04-16T10:08:50.629Z,98612.63
2023-04-16T10:11:18.273Z,98611.66
2023-04-16T10:13:45.540Z,98608.56
2023-04-16T10:16:13.369Z,98605.13
2023-04-16T10:18:41.879Z,98606.09
2023-04-16T10:21:11.747Z,98599.75
2023-04-16T10:23:39.924Z,98599.47
2023-04-16T10:26:07.202Z,98599.47
2023-04-16T10:28:35.643Z,98591.78
2023-04-16T10:31:06.900Z,98590.44
2023-04-16T10:33:38.006Z,98595.16
2023-04-16T10:36:13.139Z,98600.44
2023-04-16T10:38:41.432Z,98596.16
2023-04-16T10:41:09.600Z,98586.09
2023-04-16T10:43:41.223Z,98590.94
2023-04-16T10:46:21.812Z,98580.50
2023-04-16T10:48:50.798Z,98576.72
2023-04-16T10:51:26.155Z,98579.78
2023-04-16T10:53:58.644Z,98580.12
2023-04-16T10:56:27.328Z,98581.91
2023-04-16T10:58:57.614Z,98576.06
2023-04-16T11:01:34.561Z,98568.19
2023-04-16T11:04:03.035Z,98577.28
2023-04-16T11:06:31.993Z,98568.91
2023-04-16T11:08:59.553Z,98573.81
2023-04-16T11:11:27.113Z,98573.91
2023-04-16T11:13:55.076Z,98574.53
2023-04-16T11:16:22.384Z,98581.94
2023-04-16T11:18:51.438Z,98570.03
2023-04-16T11:21:19.219Z,98573.59
2023-04-16T11:23:47.618Z,98570.78
2023-04-16T11:26:28.182Z,98572.22
2023-04-16T11:28:56.332Z,98569.53
2023-04-16T11:31:24.112Z,98571.09
2023-04-16T11:33:51.434Z,98568.28
2023-04-16T11:36:18.768Z,98574.72
2023-04-16T11:38:46.752Z,98571.69
2023-04-16T11:41:19.261Z,98559.47
2023-04-16T11:43:46.828Z,98563.44
2023-04-16T11:46:26.390Z,98562.97
2023-04-16T11:48:56.186Z,98559.41
2023-04-16T11:51:24.170Z,98556.25
2023-04-16T11:53:53.066Z,98553.28
2023-04-16T11:56:28.379Z,98554.00
2023-04-16T11:59:09.015Z,98556.38
2023-04-16T12:01:37.228Z,98555.22
2023-04-16T12:04:05.050Z,98549.22
2023-04-16T12:06:32.811Z,98556.25
2023-04-16T12:09:00.989Z,98554.13
2023-04-16T12:11:39.148Z,98557.12
2023-04-16T12:14:12.684Z,98554.16
2023-04-16T12:16:40.279Z,98550.75
2023-04-16T12:19:07.657Z,98551.66
2023-04-16T12:21:41.792Z,98547.72
2023-04-16T12:24:09.866Z,98556.00
2023-04-16T12:26:44.631Z,98546.66
2023-04-16T12:29:30.401Z,98550.38
2023-04-16T12:31:57.887Z,98546.81
2023-04-16T12:34:41.846Z,98557.38
2023-04-16T12:37:14.819Z,98555.91
2023-04-16T12:39:42.722Z,98553.13
2023-04-16T12:42:11.497Z,98556.28
2023-04-16T12:44:38.722Z,98562.38
2023-04-16T12:47:06.233Z,98553.41
2023-04-16T12:49:33.502Z,98552.09
2023-04-16T12:52:00.823Z,98551.50
2023-04-16T12:54:31.000Z,98547.88
2023-04-16T12:56:58.265Z,98540.06
2023-04-16T12:59:25.555Z,98545.81
2023-04-16T13:01:53.209Z,98538.66
2023-04-16T13:04:22.043Z,98543.84
2023-04-16T13:06:50.927Z,98542.50
2023-04-16T13:09:20.223Z,98538.13
2023-04-16T13:11:47.450Z,98535.84
2023-04-16T13:14:14.765Z,98536.16
2023-04-16T13:16:42.293Z,98525.41
2023-04-16T13:19:09.951Z,98531.94
2023-04-16T13:21:37.613Z,98524.88
2023-04-16T13:24:05.410Z,98524.50
2023-04-16T13:26:32.638Z,98517.47
2023-04-16T13:28:59.849Z,98524.34
2023-04-16T13:31:27.433Z,98522.94
2023-04-16T13:33:54.736Z,98522.84
2023-04-16T13:36:21.957Z,98512.75
2023-04-16T13:38:49.509Z,98512.06
2023-04-16T13:41:16.840Z,98508.38
2023-04-16T13:43:44.071Z,98509.69
2023-04-16T13:46:11.916Z,98511.41
2023-04-16T13:48:39.199Z,98502.16
2023-04-16T13:51:06.512Z,98509.22
2023-04-16T13:53:34.209Z,98506.66
2023-04-16T13:56:03.638Z,98505.78
2023-04-16T13:58:30.871Z,98497.69
2023-04-16T14:00:58.445Z,98499.56
2023-04-16T14:03:26.962Z,98497.47
2023-04-16T14:05:54.273Z,98502.88
2023-04-16T14:08:23.787Z,98509.84
2023-04-16T14:10:51.747Z,98499.09
2023-04-16T14:13:19.030Z,98496.12
2023-04-16T14:15:46.269Z,98498.81
2023-04-16T14:18:13.778Z,98497.00
2023-04-16T14:20:41.196Z,98503.00
2023-04-16T14:23:08.455Z,98502.28
2023-04-16T14:25:36.021Z,98493.94
2023-04-16T14:28:03.242Z,98492.53
2023-04-16T14:30:30.500Z,98490.44
2023-04-16T14:32:58.467Z,98495.03
2023-04-16T14:35:25.793Z,98496.34
2023-04-16T14:37:53.027Z,98488.22
2023-04-16T14:40:20.692Z,98493.63
2023-04-16T14:42:48.018Z,98493.44
2023-04-16T14:45:16.007Z,98490.91
2023-04-16T14:47:47.735Z,98488.44
2023-04-16T14:50:15.739Z,98487.34
2023-04-16T14:52:43.060Z,98481.12
2023-04-16T14:55:10.757Z,98483.31
2023-04-16T14:57:38.963Z,98483.87
2023-04-16T15:00:09.152Z,98483.56
2023-04-16T15:02:37.036Z,98488.62
2023-04-16T15:05:04.481Z,98489.59
2023-04-16T15:07:31.731Z,98489.25
2023-04-16T15:09:59.265Z,98485.47
2023-04-16T15:12:26.576Z,98476.56
2023-04-16T15:14:53.838Z,98477.94
2023-04-16T15:17:21.539Z,98485.31
2023-04-16T15:19:48.828Z,98479.84
2023-04-16T15:22:16.829Z,98475.03
2023-04-16T15:24:44.423Z,98478.56
2023-04-16T15:27:13.904Z,98482.47
2023-04-16T15:29:41.208Z,98474.63
2023-04-16T15:32:08.780Z,98472.34
2023-04-16T15:34:36.115Z,98473.31
2023-04-16T15:37:03.602Z,98475.47
2023-04-16T15:39:31.282Z,98476.91
2023-04-16T15:42:02.289Z,98480.56
2023-04-16T15:44:31.555Z,98479.22
2023-04-16T15:46:58.940Z,98478.59
2023-04-16T15:49:26.600Z,98477.63
2023-04-16T15:51:54.084Z,98479.00
2023-04-16T15:54:21.506Z,98475.44
2023-04-16T15:56:48.747Z,98480.47
2023-04-16T15:59:16.853Z,98479.13
2023-04-16T16:01:44.127Z,98486.31
2023-04-16T16:04:11.849Z,98484.78
2023-04-16T16:06:39.290Z,98481.22
2023-04-16T16:09:06.458Z,98488.41
2023-04-16T16:11:34.009Z,98482.13
2023-04-16T16:14:01.540Z,98488.75
2023-04-16T16:16:28.919Z,98486.19
2023-04-16T16:18:56.532Z,98480.56
2023-04-16T16:21:23.975Z,98488.47
2023-04-16T16:23:51.253Z,98484.25
2023-04-16T16:26:20.587Z,98481.84
2023-04-16T16:28:48.461Z,98484.28
2023-04-16T16:31:15.717Z,98482.28
2023-04-16T16:33:43.736Z,98489.22
2023-04-16T16:36:11.111Z,98488.34
2023-04-16T16:38:40.017Z,98493.41
2023-04-16T16:41:07.711Z,98486.38
2023-04-16T16:43:35.488Z,98482.47
2023-04-16T16:46:02.715Z,98486.59
2023-04-16T16:48:30.296Z,98486.28
2023-04-16T16:50:57.500Z,98485.84
2023-04-16T16:53:24.877Z,98493.41
2023-04-16T16:55:53.383Z,98483.87
2023-04-16T16:58:20.841Z,98496.88
2023-04-16T17:00:48.141Z,98495.75
2023-04-16T17:03:15.957Z,98494.75
2023-04-16T17:05:43.367Z,98495.91
2023-04-16T17:08:10.679Z,98491.63
2023-04-16T17:10:38.193Z,98493.78
2023-04-16T17:13:05.437Z,98497.41
2023-04-16T17:15:32.689Z,98494.41
2023-04-16T17:18:00.352Z,98496.91
2023-04-16T17:20:27.669Z,98493.22
2023-04-16T17:22:54.933Z,98503.25
2023-04-16T17:25:23.004Z,98503.19
2023-04-16T17:27:50.223Z,98504.97
2023-04-16T17:30:17.585Z,98506.59
2023-04-16T17:32:45.214Z,98505.91
2023-04-16T17:35:13.840Z,98507.53
2023-04-16T17:37:41.083Z,98503.53
2023-04-16T17:40:10.046Z,98511.66
2023-04-16T17:42:38.582Z,98513.47
2023-04-16T17:45:06.006Z,98514.44
2023-04-16T17:47:36.918Z,98521.38
2023-04-16T17:50:04.536Z,98518.28
2023-04-16T17:52:32.679Z,98522.84
2023-04-16T17:55:01.770Z,98527.16
2023-04-16T17:57:29.271Z,98528.56
2023-04-16T17:59:56.871Z,98530.84
2023-04-16T18:02:24.616Z,98532.50
2023-04-16T18:04:52.326Z,98531.34
2023-04-16T18:07:19.698Z,98537.91
2023-04-16T18:09:46.950Z,98532.13
2023-04-16T18:12:14.714Z,98537.22
2023-04-16T18:14:44.729Z,98541.47
2023-04-16T18:17:13.064Z,98544.91
2023-04-16T18:19:43.674Z,98540.72
2023-04-16T18:22:13.200Z,98544.00
2023-04-16T18:24:40.736Z,98546.59
2023-04-16T18:27:07.884Z,98536.44
2023-04-16T18:29:35.084Z,98546.75
2023-04-16T18:32:04.741Z,98545.53
2023-04-16T18:34:32.277Z,98544.41
2023-04-16T18:36:59.554Z,98545.66
2023-04-16T18:39:27.145Z,98549.81
2023-04-16T18:41:54.328Z,98559.09
2023-04-16T18:44:21.628Z,98552.72
2023-04-16T18:46:49.124Z,98551.75
2023-04-16T18:49:16.319Z,98563.53
2023-04-16T18:51:43.665Z,98558.56
2023-04-16T18:54:11.347Z,98562.38
2023-04-16T18:56:38.538Z,98564.09
2023-04-16T18:59:05.803Z,98556.16
2023-04-16T19:01:36.297Z,98549.62
2023-04-16T19:04:03.551Z,98547.97
2023-04-16T19:06:31.856Z,98551.56
2023-04-16T19:08:59.399Z,98539.19
2023-04-16T19:11:27.125Z,98543.31
2023-04-16T19:13:54.908Z,98538.91
2023-04-16T19:16:22.776Z,98533.66
2023-04-16T19:18:52.889Z,98535.91
2023-04-16T19:21:20.280Z,98537.00
2023-04-16T19:23:48.745Z,98538.47
2023-04-16T19:26:16.778Z,98539.78
2023-04-16T19:28:44.003Z,98530.47
2023-04-16T19:31:12.126Z,98529.53
2023-04-16T19:33:40.493Z,98522.00
2023-04-16T19:36:08.738Z,98529.41
2023-04-16T19:38:36.378Z,98529.84
2023-04-16T19:41:04.216Z,98528.91
2023-04-16T19:43:31.950Z,98525.31
2023-04-16T19:45:59.579Z,98524.16
2023-04-16T19:48:26.980Z,98529.81
2023-04-16T19:50:54.119Z,98520.88
2023-04-16T19:53:21.811Z,98517.81
2023-04-16T19:55:48.974Z,98528.09
2023-04-16T19:58:16.199Z,98526.72
2023-04-16T20:00:43.980Z,98537.37
2023-04-16T20:03:11.546Z,98537.50
2023-04-16T20:05:38.752Z,98527.38
2023-04-16T20:08:06.549Z,98526.19
2023-04-16T20:10:34.034Z,98530.00
2023-04-16T20:13:01.209Z,98529.41
2023-04-16T20:15:28.616Z,98533.84
2023-04-16T20:17:56.400Z,98532.94
2023-04-16T20:20:23.679Z,98543.53
2023-04-16T20:22:51.038Z,98528.91
2023-04-16T20:25:21.528Z,98534.59
2023-04-16T20:27:48.778Z,98526.56
2023-04-16T20:30:16.362Z,98521.47
2023-04-16T20:32:43.977Z,98520.66
2023-04-16T20:35:11.690Z,98515.16
2023-04-16T20:37:39.131Z,98526.88
2023-04-16T20:40:07.870Z,98524.09
2023-04-16T20:42:35.262Z,98515.28
2023-04-16T20:45:02.499Z,98506.56
2023-04-16T20:47:30.481Z,98517.31
2023-04-16T20:49:58.219Z,98512.94
2023-04-16T20:52:25.393Z,98515.47
2023-04-16T20:54:52.956Z,98514.09
2023-04-16T20:57:20.160Z,98511.56
2023-04-16T20:59:47.408Z,98522.66
2023-04-16T21:02:15.081Z,98514.87
2023-04-16T21:04:42.513Z,98512.84
2023-04-16T21:07:09.780Z,98514.94
2023-04-16T21:09:37.269Z,98519.59
2023-04-16T21:12:04.735Z,98511.56
2023-04-16T21:14:33.880Z,98499.28
2023-04-16T21:17:01.304Z,98504.53
2023-04-16T21:19:28.631Z,98504.31
2023-04-16T21:21:56.052Z,98506.81
2023-04-16T21:24:23.494Z,98500.59
2023-04-16T21:26:50.759Z,98507.09
2023-04-16T21:29:17.893Z,98499.25
2023-04-16T21:31:45.422Z,98489.06
2023-04-16T21:34:12.666Z,98493.13
2023-04-16T21:36:39.806Z,98508.69
2023-04-16T21:39:07.300Z,98508.53
2023-04-16T21:41:34.500Z,98510.31
2023-04-16T21:44:01.634Z,98498.75
2023-04-16T21:46:29.181Z,98505.72
2023-04-16T21:48:56.380Z,98500.19
2023-04-16T21:51:29.280Z,98489.69
2023-04-16T21:53:57.128Z,98483.63
2023-04-16T21:56:24.686Z,98483.91
2023-04-16T21:58:52.005Z,98481.97
2023-04-16T22:01:19.514Z,98479.06
2023-04-16T22:03:50.569Z,98479.75
2023-04-16T22:06:18.362Z,98477.03
2023-04-16T22:08:45.868Z,98472.47
2023-04-16T22:11:13.313Z,98474.41
2023-04-16T22:13:42.328Z,98486.66
2023-04-16T22:16:11.566Z,98490.56
2023-04-16T22:18:41.012Z,98483.91
2023-04-16T22:21:08.309Z,98486.53
2023-04-16T22:23:35.761Z,98483.91
2023-04-16T22:26:04.124Z,98484.19
2023-04-16T22:28:31.537Z,98462.94
2023-04-16T22:30:58.724Z,98479.66
2023-04-16T22:33:28.714Z,98481.12
2023-04-16T22:35:55.992Z,98469.69
2023-04-16T22:38:23.662Z,98467.06
2023-04-16T22:40:51.230Z,98468.19
2023-04-16T22:43:18.444Z,98461.03
2023-04-16T22:45:46.377Z,98457.25
2023-04-16T22:48:14.082Z,98460.31
2023-04-16T22:50:45.838Z,98460.31
2023-04-16T22:53:13.110Z,98460.25
2023-04-16T22:55:40.969Z,98464.50
2023-04-16T22:58:08.217Z,98468.75
2023-04-16T23:00:35.527Z,98459.75
2023-04-16T23:03:03.182Z,98454.78
2023-04-16T23:05:30.607Z,98456.75
2023-04-16T23:07:57.815Z,98453.56
2023-04-16T23:10:25.350Z,98453.72
2023-04-16T23:12:52.625Z,98444.50
2023-04-16T23:15:19.867Z,98448.75
2023-04-16T23:17:48.249Z,98445.72
2023-04-16T23:20:15.713Z,98449.19
2023-04-16T23:22:42.994Z,98435.84
2023-04-16T23:25:10.570Z,98441.38
2023-04-16T23:27:38.820Z,98431.31
2023-04-16T23:30:06.818Z,98430.94
2023-04-16T23:32:34.470Z,98433.41
2023-04-16T23:35:02.092Z,98432.31
2023-04-16T23:37:29.294Z,98425.41
2023-04-16T23:39:56.806Z,98426.81
2023-04-16T23:42:24.046Z,98425.56
2023-04-16T23:44:51.290Z,98424.63
2023-04-16T23:47:19.023Z,98423.25
2023-04-16T23:49:46.373Z,98418.00
2023-04-16T23:52:13.607Z,98417.44
2023-04-16T23:54:41.182Z,98421.72
2023-04-16T23:57:08.405Z,98411.09
2023-04-16T23:59:35.663Z,98413.28
